createdAt,value
2022-09-20T00:00:45.482Z,8.23
2022-09-20T00:03:12.735Z,7.10
2022-09-20T00:05:42.202Z,6.43
2022-09-20T00:08:12.068Z,5.80
2022-09-20T00:10:39.578Z,6.32
2022-09-20T00:13:07.783Z,7.07
2022-09-20T00:15:34.963Z,4.90
2022-09-20T00:18:01.943Z,4.60
2022-09-20T00:20:28.962Z,7.35
2022-09-20T00:22:55.901Z,5.30
2022-09-20T00:25:22.874Z,5.22
2022-09-20T00:27:49.955Z,5.70
2022-09-20T00:30:17.118Z,5.35
2022-09-20T00:32:44.090Z,5.65
2022-09-20T00:35:11.210Z,9.70
2022-09-20T00:37:39.910Z,5.97
2022-09-20T00:40:09.542Z,6.70
2022-09-20T00:42:36.752Z,9.23
2022-09-20T00:45:08.538Z,6.97
2022-09-20T00:47:41.597Z,6.38
2022-09-20T00:50:20.718Z,6.47
2022-09-20T00:55:15.778Z,9.88
2022-09-20T00:57:43.149Z,5.80
2022-09-20T01:00:11.151Z,5.95
2022-09-20T01:02:40.833Z,7.20
2022-09-20T01:05:08.691Z,6.95
2022-09-20T01:07:36.099Z,8.02
2022-09-20T01:10:03.090Z,6.78
2022-09-20T01:12:31.387Z,7.00
2022-09-20T01:14:58.479Z,8.00
2022-09-20T01:17:26.697Z,6.18
2022-09-20T01:20:14.414Z,6.57
2022-09-20T01:23:16.861Z,6.30
2022-09-20T01:26:11.915Z,6.00
2022-09-20T01:28:39.350Z,5.18
2022-09-20T01:31:25.509Z,6.63
2022-09-20T01:34:07.829Z,5.88
2022-09-20T01:36:59.608Z,5.82
2022-09-20T01:39:45.356Z,6.00
2022-09-20T01:42:13.683Z,6.32
2022-09-20T01:44:55.929Z,6.23
2022-09-20T01:47:40.583Z,5.72
2022-09-20T01:50:31.818Z,7.18
2022-09-20T01:53:04.885Z,7.03
2022-09-20T01:56:05.131Z,7.50
2022-09-20T01:59:19.427Z,6.32
2022-09-20T02:04:48.374Z,5.22
2022-09-20T02:07:31.297Z,6.55
2022-09-20T02:10:16.598Z,4.97
2022-09-20T02:13:07.287Z,7.15
2022-09-20T02:15:47.851Z,6.88
2022-09-20T02:18:36.856Z,4.72
2022-09-20T02:26:56.543Z,5.70
2022-09-20T02:29:53.831Z,6.75
2022-09-20T02:32:34.042Z,5.72
2022-09-20T02:35:07.292Z,5.30
2022-09-20T02:37:55.881Z,5.90
2022-09-20T02:40:35.120Z,4.20
2022-09-20T02:43:08.221Z,4.60
2022-09-20T02:45:57.256Z,5.57
2022-09-20T02:48:28.907Z,5.28
2022-09-20T02:50:55.978Z,5.53
2022-09-20T02:53:47.765Z,4.35
2022-09-20T02:56:22.769Z,5.03
2022-09-20T02:59:18.605Z,4.45
2022-09-20T03:02:01.035Z,3.70
2022-09-20T03:04:46.697Z,7.63
2022-09-20T03:07:52.455Z,5.85
2022-09-20T03:10:28.305Z,15.23
2022-09-20T03:13:18.940Z,9.73
2022-09-20T03:16:07.895Z,10.32
2022-09-20T03:21:51.533Z,4.20
2022-09-20T03:24:43.535Z,6.50
2022-09-20T03:27:10.534Z,8.07
2022-09-20T03:29:59.593Z,7.63
2022-09-20T03:35:29.698Z,5.88
2022-09-20T03:38:09.092Z,6.90
2022-09-20T03:40:48.355Z,6.90
2022-09-20T03:43:26.059Z,7.35
2022-09-20T03:46:12.911Z,6.93
2022-09-20T03:49:31.265Z,8.10
2022-09-20T03:52:16.945Z,7.65
2022-09-20T03:54:55.095Z,8.10
2022-09-20T03:57:43.677Z,6.93
2022-09-20T04:00:29.731Z,8.88
2022-09-20T04:03:27.809Z,7.65
2022-09-20T04:06:28.442Z,7.50
2022-09-20T04:09:20.204Z,7.07
2022-09-20T04:12:05.768Z,7.28
2022-09-20T04:14:50.623Z,8.60
2022-09-20T04:17:43.182Z,8.25
2022-09-20T04:20:36.768Z,10.57
2022-09-20T04:23:35.385Z,7.57
2022-09-20T04:26:02.928Z,8.73
2022-09-20T04:28:41.187Z,10.38
2022-09-20T04:31:43.235Z,9.63
2022-09-20T04:34:45.482Z,8.52
2022-09-20T04:37:33.224Z,15.25
2022-09-20T04:40:07.014Z,8.15
2022-09-20T04:42:59.164Z,8.75
2022-09-20T04:45:29.180Z,9.15
2022-09-20T04:48:04.891Z,6.68
2022-09-20T04:50:36.398Z,8.50
2022-09-20T04:53:22.113Z,9.18
2022-09-20T04:55:53.124Z,9.30
2022-09-20T04:58:44.886Z,8.52
2022-09-20T05:01:31.635Z,7.85
2022-09-20T05:04:16.700Z,7.82
2022-09-20T05:06:53.833Z,8.82
2022-09-20T05:09:39.045Z,8.77
2022-09-20T05:12:24.868Z,8.60
2022-09-20T05:14:56.702Z,8.73
2022-09-20T05:17:55.541Z,9.88
2022-09-20T05:20:43.981Z,9.27
2022-09-20T05:23:33.969Z,10.63
2022-09-20T05:26:19.886Z,10.35
2022-09-20T05:28:53.910Z,11.75
2022-09-20T05:31:35.976Z,11.30
2022-09-20T05:34:12.669Z,9.20
2022-09-20T05:36:58.108Z,9.00
2022-09-20T05:40:06.698Z,9.18
2022-09-20T05:42:47.286Z,6.88
2022-09-20T05:45:52.363Z,7.93
2022-09-20T05:48:44.179Z,7.90
2022-09-20T05:51:27.973Z,10.98
2022-09-20T05:54:03.852Z,12.10
2022-09-20T05:56:52.691Z,11.55
2022-09-20T05:59:38.248Z,10.57
2022-09-20T06:02:29.851Z,9.85
2022-09-20T06:05:04.797Z,8.50
2022-09-20T06:07:42.574Z,7.45
2022-09-20T06:10:26.635Z,7.50
2022-09-20T06:13:00.061Z,6.93
2022-09-20T06:15:45.014Z,7.22
2022-09-20T06:18:35.336Z,8.82
2022-09-20T06:21:21.540Z,18.30
2022-09-20T06:26:46.722Z,12.27
2022-09-20T06:29:13.751Z,8.48
2022-09-20T06:31:40.867Z,10.13
2022-09-20T06:34:11.349Z,4.43
2022-09-20T06:37:17.543Z,10.95
2022-09-20T06:40:17.653Z,6.20
2022-09-20T06:42:46.041Z,5.13
2022-09-20T06:51:56.861Z,24.27
2022-09-20T06:54:27.248Z,7.72
2022-09-20T06:56:56.973Z,19.20
2022-09-20T06:59:24.009Z,12.65
2022-09-20T07:01:50.958Z,5.95
2022-09-20T07:04:17.889Z,4.88
2022-09-20T07:06:44.855Z,3.58
2022-09-20T07:09:11.956Z,4.55
2022-09-20T07:11:38.911Z,4.88
2022-09-20T07:14:08.164Z,6.45
2022-09-20T07:16:36.500Z,5.40
2022-09-20T07:19:05.433Z,5.77
2022-09-20T07:21:32.997Z,8.38
2022-09-20T07:24:00.207Z,5.35
2022-09-20T07:26:28.779Z,5.07
2022-09-20T07:28:56.096Z,5.97
2022-09-20T07:31:24.018Z,5.97
2022-09-20T07:33:51.027Z,5.78
2022-09-20T07:36:18.062Z,6.32
2022-09-20T07:38:53.231Z,4.30
2022-09-20T07:41:20.811Z,4.65
2022-09-20T07:43:47.820Z,4.45
2022-09-20T07:46:15.058Z,4.72
2022-09-20T07:48:42.722Z,4.93
2022-09-20T07:51:11.457Z,4.40
2022-09-20T07:53:38.659Z,5.47
2022-09-20T07:56:16.252Z,6.78
2022-09-20T07:58:44.364Z,5.70
2022-09-20T08:01:14.452Z,4.72
2022-09-20T08:03:43.145Z,4.38
2022-09-20T08:06:18.788Z,4.15
2022-09-20T08:08:45.694Z,4.65
2022-09-20T08:11:15.656Z,6.35
2022-09-20T08:16:40.812Z,2.75
2022-09-20T08:19:07.838Z,2.38
2022-09-20T08:21:40.437Z,3.45
2022-09-20T08:24:07.418Z,2.85
2022-09-20T08:26:35.991Z,2.90
2022-09-20T08:29:03.758Z,3.33
2022-09-20T08:31:34.527Z,2.83
2022-09-20T08:34:10.262Z,3.00
2022-09-20T08:36:41.564Z,4.50
2022-09-20T08:42:20.911Z,2.53
2022-09-20T08:44:57.824Z,3.30
2022-09-20T08:47:29.736Z,3.00
2022-09-20T08:49:57.358Z,3.45
2022-09-20T08:52:38.471Z,2.92
2022-09-20T08:55:40.374Z,2.47
2022-09-20T08:58:09.854Z,2.75
2022-09-20T09:00:37.995Z,3.38
2022-09-20T09:03:17.032Z,2.97
2022-09-20T09:08:20.605Z,2.33
2022-09-20T09:10:58.814Z,2.97
2022-09-20T09:13:27.466Z,2.83
2022-09-20T09:15:59.406Z,1.60
2022-09-20T09:18:37.591Z,1.95
2022-09-20T09:21:05.188Z,3.10
2022-09-20T09:23:41.723Z,4.28
2022-09-20T09:26:40.996Z,2.50
2022-09-20T09:29:08.579Z,1.80
2022-09-20T09:31:38.710Z,2.58
2022-09-20T09:34:17.274Z,9.35
2022-09-20T09:36:44.552Z,2.47
2022-09-20T09:39:29.875Z,2.03
2022-09-20T09:41:57.507Z,2.22
2022-09-20T09:44:25.455Z,4.63
2022-09-20T09:46:56.566Z,1.83
2022-09-20T09:49:27.914Z,2.05
2022-09-20T09:52:05.119Z,2.17
2022-09-20T09:54:37.514Z,2.05
2022-09-20T09:57:22.650Z,1.83
2022-09-20T09:59:55.419Z,2.28
2022-09-20T10:02:50.887Z,2.38
2022-09-20T10:05:58.368Z,2.08
2022-09-20T10:08:35.565Z,2.10
2022-09-20T10:11:24.390Z,3.65
2022-09-20T10:14:29.887Z,4.00
2022-09-20T10:17:12.418Z,3.35
2022-09-20T10:20:02.397Z,3.75
2022-09-20T10:23:29.917Z,3.70
2022-09-20T10:25:48.797Z,8.57
2022-09-20T10:28:48.555Z,4.78
2022-09-20T10:31:31.058Z,2.67
2022-09-20T10:34:17.554Z,3.05
2022-09-20T10:37:12.134Z,1.90
2022-09-20T10:39:39.419Z,3.05
2022-09-20T10:42:43.608Z,2.53
2022-09-20T10:45:43.918Z,2.92
2022-09-20T10:48:14.638Z,3.22
2022-09-20T10:51:09.155Z,2.55
2022-09-20T10:53:39.113Z,3.08
2022-09-20T10:56:28.292Z,1.35
2022-09-20T10:59:33.714Z,1.38
2022-09-20T11:02:21.266Z,1.83
2022-09-20T11:38:58.287Z,2.65
2022-09-20T11:41:29.549Z,1.42
2022-09-20T11:44:08.085Z,1.73
2022-09-20T11:46:50.563Z,1.35
2022-09-20T11:49:21.438Z,2.80
2022-09-20T11:52:08.314Z,1.83
2022-09-20T11:54:42.329Z,1.33
2022-09-20T11:57:12.774Z,1.70
2022-09-20T11:59:43.829Z,2.00
2022-09-20T12:02:35.181Z,1.15
2022-09-20T12:05:04.262Z,1.42
2022-09-20T12:07:42.896Z,2.53
2022-09-20T12:10:26.732Z,1.45
2022-09-20T12:13:01.910Z,2.70
2022-09-20T12:15:35.393Z,0.90
2022-09-20T12:18:15.803Z,1.85
2022-09-20T12:20:42.884Z,1.08
2022-09-20T12:23:39.104Z,5.55
2022-09-20T12:26:21.888Z,3.58
2022-09-20T12:28:50.365Z,2.40
2022-09-20T12:31:29.847Z,3.15
2022-09-20T12:34:15.990Z,1.10
2022-09-20T12:36:55.446Z,2.25
2022-09-20T12:39:30.057Z,1.92
2022-09-20T12:41:57.442Z,3.05
2022-09-20T12:44:36.519Z,1.75
2022-09-20T12:50:07.010Z,1.45
2022-09-20T12:53:01.658Z,2.30
2022-09-20T12:55:45.819Z,3.42
2022-09-20T12:58:15.684Z,4.18
2022-09-20T13:00:47.207Z,2.38
2022-09-20T13:03:28.657Z,2.70
2022-09-20T13:06:13.670Z,3.10
2022-09-20T13:08:49.594Z,3.22
2022-09-20T13:11:39.385Z,1.63
2022-09-20T13:14:09.330Z,2.38
2022-09-20T13:16:47.558Z,1.77
2022-09-20T13:19:29.919Z,1.98
2022-09-20T13:22:06.251Z,1.88
2022-09-20T13:24:47.116Z,2.55
2022-09-20T13:27:25.931Z,2.13
2022-09-20T13:29:53.623Z,1.92
2022-09-20T13:32:27.478Z,5.97
2022-09-20T13:35:12.944Z,7.70
2022-09-20T13:37:53.888Z,3.60
2022-09-20T13:40:23.537Z,2.42
2022-09-20T13:42:52.426Z,2.55
2022-09-20T13:45:20.580Z,5.68
2022-09-20T13:47:52.204Z,4.82
2022-09-20T13:50:23.023Z,2.05
2022-09-20T13:52:52.245Z,7.95
2022-09-20T13:55:29.015Z,3.25
2022-09-20T13:57:57.513Z,2.47
2022-09-20T14:00:27.641Z,35.15
2022-09-20T14:02:55.017Z,2.78
2022-09-20T14:05:24.247Z,2.13
2022-09-20T14:07:51.209Z,1.95
2022-09-20T14:10:37.796Z,1.83
2022-09-20T14:13:08.754Z,2.03
2022-09-20T14:15:46.637Z,1.80
2022-09-20T14:18:17.955Z,4.28
2022-09-20T14:20:45.153Z,3.22
2022-09-20T14:23:22.708Z,2.05
2022-09-20T14:26:09.424Z,4.07
2022-09-20T14:28:37.849Z,2.17
2022-09-20T14:31:29.030Z,1.83
2022-09-20T14:34:00.307Z,2.42
2022-09-20T14:36:28.882Z,2.70
2022-09-20T14:39:02.903Z,2.40
2022-09-20T14:41:40.195Z,3.05
2022-09-20T14:44:18.652Z,3.10
2022-09-20T14:46:46.138Z,4.25
2022-09-20T14:49:25.938Z,3.55
2022-09-20T14:51:53.773Z,3.08
2022-09-20T14:54:30.764Z,2.38
2022-09-20T14:57:01.802Z,3.83
2022-09-20T14:59:30.693Z,4.30
2022-09-20T15:02:13.136Z,3.10
2022-09-20T15:04:40.832Z,4.60
2022-09-20T15:07:09.003Z,6.60
2022-09-20T15:09:35.985Z,13.77
2022-09-20T15:12:07.639Z,5.05
2022-09-20T15:14:37.859Z,5.20
2022-09-20T15:17:05.133Z,4.35
2022-09-20T15:19:32.273Z,3.63
2022-09-20T15:21:59.690Z,6.13
2022-09-20T15:24:26.681Z,8.60
2022-09-20T15:26:54.287Z,3.67
2022-09-20T15:29:21.904Z,3.90
2022-09-20T15:31:49.064Z,3.55
2022-09-20T15:34:16.394Z,4.45
2022-09-20T15:36:44.963Z,14.25
2022-09-20T15:39:12.000Z,5.00
2022-09-20T15:41:39.043Z,4.07
2022-09-20T15:44:06.747Z,1.50
2022-09-20T15:46:33.741Z,2.65
2022-09-20T15:49:09.189Z,1.50
2022-09-20T15:51:36.227Z,1.50
2022-09-20T15:54:06.285Z,3.05
2022-09-20T15:56:34.874Z,12.40
2022-09-20T15:59:04.219Z,15.00
2022-09-20T16:01:37.280Z,2.60
2022-09-20T16:07:46.793Z,3.42
2022-09-20T16:10:19.690Z,3.85
2022-09-20T16:12:46.729Z,1.50
2022-09-20T16:15:13.810Z,3.92
2022-09-20T16:17:58.976Z,6.35
2022-09-20T16:20:25.971Z,9.23
2022-09-20T16:22:53.370Z,5.03
2022-09-20T16:25:20.743Z,2.53
2022-09-20T16:27:49.215Z,6.90
2022-09-20T16:30:23.548Z,4.03
2022-09-20T16:32:52.911Z,5.18
2022-09-20T16:35:28.081Z,3.28
2022-09-20T16:37:55.020Z,5.38
2022-09-20T16:40:22.027Z,4.28
2022-09-20T16:42:52.348Z,4.72
2022-09-20T16:45:20.248Z,5.60
2022-09-20T16:47:48.122Z,15.18
2022-09-20T16:54:31.803Z,8.40
2022-09-20T16:57:09.416Z,8.25
2022-09-20T16:59:37.201Z,10.52
2022-09-20T17:02:04.144Z,11.38
2022-09-20T17:04:31.275Z,12.73
2022-09-20T17:06:58.548Z,16.33
2022-09-20T17:09:25.529Z,8.15
2022-09-20T17:11:53.855Z,12.75
2022-09-20T17:14:21.167Z,15.97
2022-09-20T17:16:48.577Z,15.05
2022-09-20T17:19:18.620Z,21.17
2022-09-20T17:21:49.493Z,28.88
2022-09-20T17:24:17.648Z,27.30
2022-09-20T17:26:45.141Z,34.90
2022-09-20T17:29:16.337Z,32.88
2022-09-20T17:31:53.976Z,27.08
2022-09-20T17:36:50.623Z,26.67
2022-09-20T17:39:18.191Z,24.17
2022-09-20T17:41:46.633Z,23.75
2022-09-20T17:44:13.997Z,25.50
2022-09-20T17:46:45.056Z,24.95
2022-09-20T17:49:13.423Z,28.48
2022-09-20T17:51:48.586Z,26.33
2022-09-20T17:54:15.754Z,24.55
2022-09-20T17:56:48.754Z,28.42
2022-09-20T17:59:16.775Z,27.10
2022-09-20T18:01:44.661Z,30.42
2022-09-20T18:04:11.891Z,28.90
2022-09-20T18:06:46.197Z,28.17
2022-09-20T18:09:15.909Z,27.08
2022-09-20T18:11:49.265Z,23.80
2022-09-20T18:14:17.450Z,28.55
2022-09-20T18:16:44.465Z,50.00
2022-09-20T18:19:11.673Z,44.25
2022-09-20T18:21:39.434Z,42.70
2022-09-20T18:24:07.340Z,40.72
2022-09-20T18:26:34.610Z,43.70
2022-09-20T18:29:11.267Z,39.00
2022-09-20T18:31:45.363Z,36.28
2022-09-20T18:34:22.965Z,23.98
2022-09-20T18:36:54.650Z,19.42
2022-09-20T18:39:23.254Z,19.08
2022-09-20T18:41:50.759Z,34.40
2022-09-20T18:44:18.943Z,23.40
2022-09-20T18:46:49.184Z,22.25
2022-09-20T18:49:17.152Z,14.63
2022-09-20T18:51:44.488Z,25.02
2022-09-20T18:54:11.815Z,41.75
2022-09-20T18:56:40.163Z,44.65
2022-09-20T18:59:20.941Z,25.55
2022-09-20T19:01:52.885Z,28.90
2022-09-20T19:04:38.383Z,20.30
2022-09-20T19:07:20.611Z,18.73
2022-09-20T19:09:56.841Z,19.25
2022-09-20T19:12:30.636Z,22.27
2022-09-20T19:15:10.841Z,41.45
2022-09-20T19:17:53.826Z,25.85
2022-09-20T19:20:42.253Z,21.48
2022-09-20T19:23:25.453Z,12.98
2022-09-20T19:26:00.275Z,17.20
2022-09-20T19:28:27.440Z,13.48
2022-09-20T19:30:55.731Z,15.05
2022-09-20T19:33:23.075Z,13.63
2022-09-20T19:35:50.616Z,15.75
2022-09-20T19:38:40.006Z,17.17
2022-09-20T19:41:31.706Z,16.30
2022-09-20T19:44:07.744Z,23.98
2022-09-20T19:46:57.430Z,11.63
2022-09-20T19:49:41.299Z,17.80
2022-09-20T19:52:12.508Z,15.15
2022-09-20T19:54:44.450Z,12.50
2022-09-20T19:57:21.238Z,14.52
2022-09-20T19:59:49.303Z,14.20
2022-09-20T20:02:16.482Z,13.43
2022-09-20T20:04:43.836Z,11.10
2022-09-20T20:07:30.030Z,11.45
2022-09-20T20:10:05.280Z,11.02
2022-09-20T20:12:50.663Z,14.05
2022-09-20T20:15:38.294Z,12.15
2022-09-20T20:18:28.195Z,17.70
2022-09-20T20:20:56.725Z,11.90
2022-09-20T20:23:41.822Z,15.85
2022-09-20T20:26:10.242Z,13.43
2022-09-20T20:28:37.363Z,12.25
2022-09-20T20:31:04.835Z,11.88
2022-09-20T20:33:33.019Z,10.45
2022-09-20T20:36:01.085Z,9.77
2022-09-20T20:38:37.739Z,8.73
2022-09-20T20:41:08.784Z,10.40
2022-09-20T20:43:37.262Z,18.42
2022-09-20T20:46:05.531Z,8.10
2022-09-20T20:48:32.935Z,8.03
2022-09-20T20:51:11.029Z,13.07
2022-09-20T20:53:39.449Z,10.93
2022-09-20T20:56:10.910Z,9.80
2022-09-20T20:58:41.529Z,12.02
2022-09-20T21:01:12.451Z,10.80
2022-09-20T21:03:41.281Z,8.38
2022-09-20T21:06:08.757Z,11.10
2022-09-20T21:08:39.710Z,8.55
2022-09-20T21:11:11.803Z,7.70
2022-09-20T21:13:39.863Z,9.32
2022-09-20T21:16:09.257Z,9.90
2022-09-20T21:18:36.321Z,12.50
2022-09-20T21:21:03.820Z,13.50
2022-09-20T21:23:35.079Z,11.07
2022-09-20T21:26:07.968Z,10.77
2022-09-20T21:28:36.993Z,13.63
2022-09-20T21:31:09.208Z,9.13
2022-09-20T21:33:38.599Z,9.80
2022-09-20T21:36:06.275Z,9.90
2022-09-20T21:38:34.737Z,8.77
2022-09-20T21:41:22.597Z,12.38
2022-09-20T21:43:53.258Z,9.32
2022-09-20T21:46:21.867Z,8.52
2022-09-20T21:48:49.257Z,12.15
2022-09-20T21:51:18.379Z,10.10
2022-09-20T21:56:14.117Z,8.63
2022-09-20T21:58:41.373Z,12.02
2022-09-20T22:01:11.820Z,10.07
2022-09-20T22:04:05.972Z,12.65
2022-09-20T22:06:37.871Z,9.27
2022-09-20T22:09:09.513Z,11.43
2022-09-20T22:11:42.193Z,8.23
2022-09-20T22:14:10.033Z,7.78
2022-09-20T22:16:38.661Z,9.73
2022-09-20T22:19:06.236Z,13.85
2022-09-20T22:21:35.957Z,11.88
2022-09-20T22:24:07.773Z,9.05
2022-09-20T22:26:48.814Z,8.82
2022-09-20T22:29:16.167Z,8.93
2022-09-20T22:31:45.805Z,7.72
2022-09-20T22:34:51.113Z,16.77
2022-09-20T22:37:18.321Z,6.53
2022-09-20T22:39:46.927Z,6.78
2022-09-20T22:42:13.927Z,7.25
2022-09-20T22:44:41.001Z,6.18
2022-09-20T22:47:08.006Z,5.72
2022-09-20T22:49:35.113Z,5.55
2022-09-20T22:52:02.522Z,5.80
2022-09-20T22:54:29.494Z,8.73
2022-09-20T22:56:56.527Z,6.75
2022-09-20T22:59:23.654Z,5.72
2022-09-20T23:01:50.592Z,8.43
2022-09-20T23:04:19.234Z,6.75
2022-09-20T23:06:55.332Z,6.72
2022-09-20T23:09:27.510Z,8.63
2022-09-20T23:11:54.511Z,5.07
2022-09-20T23:14:21.827Z,5.63
2022-09-20T23:16:49.036Z,7.97
2022-09-20T23:19:16.329Z,6.10
2022-09-20T23:21:43.634Z,4.30
2022-09-20T23:24:12.483Z,9.25
2022-09-20T23:26:39.767Z,4.95
2022-09-20T23:29:08.989Z,5.90
2022-09-20T23:31:37.144Z,6.85
2022-09-20T23:34:05.531Z,5.60
2022-09-20T23:36:34.060Z,6.68
2022-09-20T23:39:01.105Z,8.40
2022-09-20T23:41:29.084Z,5.13
2022-09-20T23:43:56.044Z,6.97
2022-09-20T23:46:33.453Z,18.05
2022-09-20T23:49:00.444Z,6.10
2022-09-20T23:51:28.675Z,4.70
2022-09-20T23:53:56.294Z,3.90
2022-09-20T23:56:23.919Z,6.13
2022-09-20T23:58:51.727Z,4.47
